Time;durP1;ratioP1;P1;durP2;ratioP2;P2;SDS_P1;SDS_P2;PMS_P1;PMS_P2;Temp;Humidity;BMP_temperature;BMP_pressure;BME280_temperature;BME280_humidity;BME280_pressure;Samples;Min_cycle;Max_cycle;Signal;HPM_P1;HPM_P2
2023/01/05 00:01:16;;;;;;;;;;;;;;;11.29;72.50;98721.13;7386543;19;19936;-83
2023/01/05 00:03:43;;;;;;;;;;;;;;;11.35;72.16;98712.59;7379816;19;19923;-84
2023/01/05 00:06:12;;;;;;;;;;;;;;;11.27;72.00;98699.28;7381344;19;19919;-81
2023/01/05 00:08:38;;;;;;;;;;;;;;;11.30;72.21;98699.00;7379403;19;19994;-81
2023/01/05 00:22:29;;;;;;;;;;;;;;;11.52;71.05;98679.13;7384177;19;19923;-84
2023/01/05 00:24:57;;;;;;;;;;;;;;;11.42;71.30;98686.31;7383117;19;19918;-83
2023/01/05 00:27:24;;;;;;;;;;;;;;;11.35;71.56;98680.81;7389425;19;19935;-81
2023/01/05 00:29:51;;;;;;;;;;;;;;;11.54;70.94;98685.09;7388403;19;19919;-85
2023/01/05 00:32:17;;;;;;;;;;;;;;;11.51;71.03;98668.69;7390567;19;19922;-85
2023/01/05 00:34:44;;;;;;;;;;;;;;;11.53;71.02;98694.06;7386755;19;19947;-82
2023/01/05 00:37:10;;;;;;;;;;;;;;;11.53;71.09;98686.09;7388370;19;19919;-81
2023/01/05 00:39:38;;;;;;;;;;;;;;;11.56;70.93;98703.50;7390575;19;20294;-83
2023/01/05 00:42:05;;;;;;;;;;;;;;;11.42;71.34;98687.16;7390270;19;19919;-81
2023/01/05 00:44:32;;;;;;;;;;;;;;;11.54;71.28;98690.41;7387912;19;19994;-83
2023/01/05 00:46:58;;;;;;;;;;;;;;;11.54;71.09;98689.56;7387297;19;19926;-81
2023/01/05 00:49:25;;;;;;;;;;;;;;;11.64;70.54;98677.91;7390990;19;20258;-82
2023/01/05 00:51:52;;;;;;;;;;;;;;;11.69;70.58;98684.53;7389162;19;20395;-82
2023/01/05 00:54:19;;;;;;;;;;;;;;;11.66;70.89;98688.31;7391693;19;19931;-84
2023/01/05 00:56:48;;;;;;;;;;;;;;;11.55;71.10;98681.44;7386986;19;19922;-82
2023/01/05 00:59:15;;;;;;;;;;;;;;;11.56;71.05;98677.84;7385755;19;19924;-82
2023/01/05 01:01:48;;;;;;;;;;;;;;;11.56;71.27;98690.25;7387448;19;19932;-82
2023/01/05 01:04:15;;;;;;;;;;;;;;;11.68;70.92;98689.00;7391900;19;20341;-83
2023/01/05 01:06:42;;;;;;;;;;;;;;;11.66;70.90;98693.63;7382275;19;19911;-81
2023/01/05 01:09:08;;;;;;;;;;;;;;;11.63;71.16;98688.63;7390973;19;19910;-82
2023/01/05 01:11:36;;;;;;;;;;;;;;;11.60;71.20;98683.66;7386062;19;19924;-81
2023/01/05 01:14:06;;;;;;;;;;;;;;;11.75;70.97;98687.41;7381092;19;19929;-81
2023/01/05 01:16:33;;;;;;;;;;;;;;;11.55;71.59;98689.41;7380712;19;19915;-82
2023/01/05 01:18:59;;;;;;;;;;;;;;;11.59;71.58;98693.41;7386167;19;19918;-81
2023/01/05 01:21:31;;;;;;;;;;;;;;;11.59;71.59;98674.88;7389729;19;19922;-84
2023/01/05 01:24:00;;;;;;;;;;;;;;;11.70;71.28;98678.25;7391639;19;19937;-83
2023/01/05 01:26:29;;;;;;;;;;;;;;;11.69;71.09;98688.03;7387531;19;19990;-82
2023/01/05 01:28:55;;;;;;;;;;;;;;;11.78;71.00;98676.47;7390439;19;20042;-82
2023/01/05 01:31:22;;;;;;;;;;;;;;;11.72;71.25;98685.06;7389799;19;19927;-82
2023/01/05 01:33:48;;;;;;;;;;;;;;;11.59;71.46;98674.88;7383135;19;19918;-82
2023/01/05 01:36:15;;;;;;;;;;;;;;;11.76;71.19;98670.50;7387901;19;19923;-81
2023/01/05 01:38:42;;;;;;;;;;;;;;;11.75;71.07;98674.16;7387504;19;20628;-83
2023/01/05 01:41:09;;;;;;;;;;;;;;;11.69;71.21;98666.84;7388571;19;20611;-82
2023/01/05 01:43:49;;;;;;;;;;;;;;;11.75;71.12;98668.03;7392683;19;19959;-85
2023/01/05 01:46:18;;;;;;;;;;;;;;;11.63;71.50;98678.03;7384652;19;19986;-83
2023/01/05 01:48:55;;;;;;;;;;;;;;;11.55;71.76;98672.69;7382972;19;20690;-83
2023/01/05 01:51:23;;;;;;;;;;;;;;;11.73;71.40;98678.78;7387528;19;19937;-84
2023/01/05 01:53:51;;;;;;;;;;;;;;;11.68;71.46;98665.16;7384919;19;19925;-82
2023/01/05 01:56:17;;;;;;;;;;;;;;;11.80;71.27;98679.00;7384571;19;19923;-83
2023/01/05 01:58:44;;;;;;;;;;;;;;;11.89;70.87;98682.56;7386654;19;19933;-82
2023/01/05 02:01:11;;;;;;;;;;;;;;;11.91;70.92;98678.75;7392853;19;19970;-82
2023/01/05 02:03:39;;;;;;;;;;;;;;;11.93;70.58;98678.56;7385481;19;19919;-82
2023/01/05 02:06:06;;;;;;;;;;;;;;;11.69;71.14;98682.72;7383807;19;19918;-84
2023/01/05 02:08:32;;;;;;;;;;;;;;;11.72;71.32;98666.53;7384902;19;19919;-83
2023/01/05 02:11:11;;;;;;;;;;;;;;;11.89;70.84;98671.94;7388577;19;19919;-83
2023/01/05 02:13:50;;;;;;;;;;;;;;;11.83;70.99;98670.72;7384317;19;20685;-84
2023/01/05 02:16:35;;;;;;;;;;;;;;;11.82;71.22;98669.91;7389259;19;19941;-82
2023/01/05 02:19:11;;;;;;;;;;;;;;;11.75;71.35;98670.69;7390701;19;20276;-83
2023/01/05 02:21:45;;;;;;;;;;;;;;;11.81;71.27;98665.56;7386235;19;19927;-82
2023/01/05 02:24:21;;;;;;;;;;;;;;;11.93;70.74;98655.56;7385978;19;19917;-83
2023/01/05 02:26:50;;;;;;;;;;;;;;;11.92;71.11;98656.53;7386846;19;19915;-82
2023/01/05 02:29:36;;;;;;;;;;;;;;;11.86;71.17;98646.56;7388168;19;20397;-81
2023/01/05 02:32:03;;;;;;;;;;;;;;;11.80;71.31;98634.75;7387234;19;20012;-83
2023/01/05 02:34:33;;;;;;;;;;;;;;;11.78;71.48;98647.31;7383444;19;19910;-83
2023/01/05 02:37:03;;;;;;;;;;;;;;;11.75;71.70;98637.03;7391958;19;19915;-84
2023/01/05 02:39:32;;;;;;;;;;;;;;;11.76;71.58;98643.16;7388763;19;20228;-82
2023/01/05 02:42:02;;;;;;;;;;;;;;;11.71;71.74;98646.28;7388721;19;19947;-83
2023/01/05 02:44:29;;;;;;;;;;;;;;;11.78;71.72;98626.13;7394499;19;19915;-83
2023/01/05 02:46:59;;;;;;;;;;;;;;;11.83;71.56;98633.63;7398230;19;20151;-81
2023/01/05 02:49:26;;;;;;;;;;;;;;;11.83;71.54;98636.25;7399312;19;19923;-82
2023/01/05 02:51:54;;;;;;;;;;;;;;;11.88;71.44;98649.09;7396438;19;19978;-83
2023/01/05 02:54:26;;;;;;;;;;;;;;;11.92;71.41;98639.81;7386531;19;20325;-81
2023/01/05 02:56:54;;;;;;;;;;;;;;;12.00;71.19;98645.16;7384410;19;19935;-83
2023/01/05 02:59:23;;;;;;;;;;;;;;;11.92;71.72;98645.94;7387084;19;20008;-83
2023/01/05 03:01:55;;;;;;;;;;;;;;;12.00;71.19;98642.50;7385354;19;20265;-83
2023/01/05 03:04:28;;;;;;;;;;;;;;;12.02;71.24;98645.84;7387292;19;19918;-83
2023/01/05 03:06:58;;;;;;;;;;;;;;;12.04;71.22;98636.72;7386483;19;20023;-83
2023/01/05 03:09:34;;;;;;;;;;;;;;;12.07;71.06;98646.19;7388666;19;19911;-85
2023/01/05 03:15:17;;;;;;;;;;;;;;;12.03;71.30;98647.47;7384322;19;19931;-82
2023/01/05 03:17:45;;;;;;;;;;;;;;;11.97;71.60;98635.69;7386299;19;19927;-84
2023/01/05 03:20:15;;;;;;;;;;;;;;;12.06;71.48;98647.19;7387991;19;20388;-83
2023/01/05 03:37:01;;;;;;;;;;;;;;;12.00;71.73;98650.47;7395027;19;19925;-83
2023/01/05 03:39:27;;;;;;;;;;;;;;;12.02;71.85;98648.50;7397050;19;20315;-83
2023/01/05 03:41:57;;;;;;;;;;;;;;;12.02;71.70;98651.13;7394768;19;19923;-83
2023/01/05 03:44:24;;;;;;;;;;;;;;;12.08;71.46;98651.34;7394917;19;19950;-83
2023/01/05 03:46:51;;;;;;;;;;;;;;;12.16;71.32;98657.66;7388172;19;19929;-84
2023/01/05 03:49:18;;;;;;;;;;;;;;;12.16;71.11;98644.41;7406557;19;20658;-82
2023/01/05 03:51:45;;;;;;;;;;;;;;;12.19;71.19;98647.59;7406032;19;19944;-82
2023/01/05 03:54:11;;;;;;;;;;;;;;;12.18;71.16;98653.84;7406041;19;19922;-83
2023/01/05 03:56:39;;;;;;;;;;;;;;;12.17;71.31;98654.84;7399313;19;19926;-83
2023/01/05 03:59:06;;;;;;;;;;;;;;;12.16;72.15;98652.34;7405707;19;19923;-80
2023/01/05 04:01:35;;;;;;;;;;;;;;;12.22;72.05;98652.56;7399075;19;20392;-81
2023/01/05 04:04:02;;;;;;;;;;;;;;;11.98;73.09;98655.06;7402694;19;19923;-83
2023/01/05 04:06:28;;;;;;;;;;;;;;;12.05;72.90;98656.13;7399970;19;19927;-81
2023/01/05 04:08:56;;;;;;;;;;;;;;;12.04;73.06;98649.16;7397122;19;19935;-80
2023/01/05 04:11:23;;;;;;;;;;;;;;;11.94;73.37;98648.44;7402490;19;19919;-83
2023/01/05 04:13:55;;;;;;;;;;;;;;;11.84;73.55;98644.03;7397147;19;19915;-82
2023/01/05 04:16:22;;;;;;;;;;;;;;;11.82;73.66;98638.09;7398130;19;19915;-84
2023/01/05 04:18:51;;;;;;;;;;;;;;;11.75;74.13;98647.66;7402125;19;19915;-81
2023/01/05 04:21:20;;;;;;;;;;;;;;;11.85;74.09;98652.84;7397214;19;19918;-83
2023/01/05 04:23:48;;;;;;;;;;;;;;;11.84;74.18;98641.38;7390072;19;19918;-81
2023/01/05 04:26:15;;;;;;;;;;;;;;;11.94;74.10;98648.44;7387133;19;19935;-81
2023/01/05 04:28:47;;;;;;;;;;;;;;;11.94;74.19;98645.78;7386422;19;20432;-80
2023/01/05 04:31:16;;;;;;;;;;;;;;;11.95;74.41;98647.44;7391676;19;19919;-83
2023/01/05 04:33:44;;;;;;;;;;;;;;;11.86;74.56;98644.75;7389202;19;20677;-85
2023/01/05 04:36:15;;;;;;;;;;;;;;;11.78;75.16;98649.16;7384752;19;19915;-80
2023/01/05 04:38:41;;;;;;;;;;;;;;;11.78;75.24;98647.31;7384478;19;19922;-84
2023/01/05 04:41:08;;;;;;;;;;;;;;;11.81;75.52;98644.34;7384613;19;19922;-83
2023/01/05 04:43:36;;;;;;;;;;;;;;;11.77;75.58;98656.28;7381747;19;19925;-82
2023/01/05 04:46:03;;;;;;;;;;;;;;;11.81;75.58;98654.97;7380680;19;19930;-81
2023/01/05 04:48:30;;;;;;;;;;;;;;;11.79;75.58;98651.63;7380629;19;19922;-81
2023/01/05 04:50:58;;;;;;;;;;;;;;;11.77;75.82;98650.13;7384006;19;19976;-85
2023/01/05 04:53:32;;;;;;;;;;;;;;;11.82;75.66;98654.00;7383356;19;20555;-82
2023/01/05 04:55:59;;;;;;;;;;;;;;;11.73;75.89;98668.16;7378019;19;20301;-82
2023/01/05 04:58:30;;;;;;;;;;;;;;;11.79;75.99;98659.59;7381169;19;19926;-83
2023/01/05 05:00:57;;;;;;;;;;;;;;;11.74;76.37;98661.03;7384802;19;19950;-83
2023/01/05 05:03:26;;;;;;;;;;;;;;;11.77;76.13;98655.44;7389228;19;19948;-83
2023/01/05 05:05:59;;;;;;;;;;;;;;;11.81;76.05;98662.09;7386581;19;19918;-84
2023/01/05 05:08:27;;;;;;;;;;;;;;;11.62;76.92;98668.44;7386923;19;19911;-82
2023/01/05 05:10:53;;;;;;;;;;;;;;;11.76;76.76;98667.84;7391897;19;19934;-82
2023/01/05 05:13:20;;;;;;;;;;;;;;;11.58;77.60;98678.50;7391484;19;20421;-82
2023/01/05 05:15:48;;;;;;;;;;;;;;;11.70;77.97;98678.25;7382050;19;19922;-84
2023/01/05 05:18:15;;;;;;;;;;;;;;;11.60;78.10;98675.69;7386526;19;19937;-85
2023/01/05 05:20:48;;;;;;;;;;;;;;;11.56;78.61;98684.97;7382167;19;19935;-82
2023/01/05 05:23:15;;;;;;;;;;;;;;;11.62;78.62;98686.97;7384100;19;20330;-83
2023/01/05 05:25:41;;;;;;;;;;;;;;;11.60;78.87;98686.31;7381016;19;19919;-84
2023/01/05 05:28:08;;;;;;;;;;;;;;;11.30;79.99;98696.34;7383902;19;19923;-85
2023/01/05 05:30:36;;;;;;;;;;;;;;;11.30;80.69;98688.38;7385360;19;19922;-84
2023/01/05 05:33:02;;;;;;;;;;;;;;;11.39;80.35;98686.63;7378808;19;19947;-82
2023/01/05 05:35:29;;;;;;;;;;;;;;;11.52;79.92;98700.31;7381937;19;19911;-82
2023/01/05 05:37:56;;;;;;;;;;;;;;;11.44;80.21;98694.94;7383092;19;19915;-85
2023/01/05 05:40:22;;;;;;;;;;;;;;;11.31;80.69;98703.28;7385828;19;19925;-83
2023/01/05 05:42:49;;;;;;;;;;;;;;;11.13;81.08;98700.63;7380902;19;19921;-82
2023/01/05 05:45:15;;;;;;;;;;;;;;;11.06;81.01;98701.38;7381277;19;19948;-84
2023/01/05 05:47:42;;;;;;;;;;;;;;;11.18;80.84;98708.97;7375295;19;19923;-83
2023/01/05 05:50:09;;;;;;;;;;;;;;;11.18;80.60;98714.25;7378455;19;20269;-81
2023/01/05 05:52:36;;;;;;;;;;;;;;;11.16;80.55;98710.94;7376310;19;19919;-83
2023/01/05 05:55:02;;;;;;;;;;;;;;;11.16;80.05;98720.69;7378088;19;19918;-83
2023/01/05 05:57:29;;;;;;;;;;;;;;;11.21;79.50;98719.25;7381893;19;19921;-83
2023/01/05 05:59:56;;;;;;;;;;;;;;;11.15;79.49;98726.97;7385983;19;19921;-84
2023/01/05 06:02:23;;;;;;;;;;;;;;;11.13;79.53;98731.59;7381580;19;19930;-84
2023/01/05 06:04:49;;;;;;;;;;;;;;;11.10;79.51;98737.19;7377734;19;19923;-83
2023/01/05 06:07:16;;;;;;;;;;;;;;;11.13;79.21;98737.72;7378901;19;19915;-81
2023/01/05 06:09:42;;;;;;;;;;;;;;;11.18;78.88;98737.25;7382368;19;19935;-86
2023/01/05 06:12:09;;;;;;;;;;;;;;;11.11;78.77;98744.13;7382351;19;19923;-83
2023/01/05 06:14:36;;;;;;;;;;;;;;;10.93;78.75;98738.84;7380562;19;19915;-82
2023/01/05 06:17:02;;;;;;;;;;;;;;;11.32;77.74;98751.78;7381269;19;19918;-83
2023/01/05 06:19:29;;;;;;;;;;;;;;;11.21;77.72;98761.63;7381131;19;20645;-84
2023/01/05 06:21:55;;;;;;;;;;;;;;;10.99;77.89;98749.66;7377843;19;19918;-86
2023/01/05 06:24:22;;;;;;;;;;;;;;;11.04;77.12;98762.44;7383760;19;20374;-83
2023/01/05 06:26:49;;;;;;;;;;;;;;;11.05;77.12;98764.09;7382668;19;20348;-84
2023/01/05 06:29:15;;;;;;;;;;;;;;;11.11;77.10;98774.13;7387910;19;19929;-81
2023/01/05 06:31:42;;;;;;;;;;;;;;;11.14;76.99;98773.00;7386713;19;19926;-85
2023/01/05 06:34:08;;;;;;;;;;;;;;;11.17;76.71;98784.09;7389045;19;19910;-84
2023/01/05 06:36:35;;;;;;;;;;;;;;;11.07;76.89;98793.09;7385085;19;19911;-83
2023/01/05 06:39:02;;;;;;;;;;;;;;;10.96;77.36;98802.91;7388135;19;20607;-84
2023/01/05 06:41:29;;;;;;;;;;;;;;;11.16;76.75;98802.78;7385636;19;19914;-84
2023/01/05 06:43:56;;;;;;;;;;;;;;;11.00;77.20;98798.13;7383198;19;20400;-83
2023/01/05 06:46:22;;;;;;;;;;;;;;;11.14;76.92;98818.84;7387163;19;20404;-86
2023/01/05 06:48:50;;;;;;;;;;;;;;;11.18;76.78;98808.75;7387555;19;19910;-83
2023/01/05 06:51:17;;;;;;;;;;;;;;;11.20;76.19;98814.75;7388176;19;19993;-84
2023/01/05 06:53:43;;;;;;;;;;;;;;;11.20;76.46;98809.47;7389015;19;19939;-82
2023/01/05 06:56:10;;;;;;;;;;;;;;;10.91;77.18;98825.50;7386284;19;19925;-81
2023/01/05 06:58:37;;;;;;;;;;;;;;;11.03;76.78;98818.19;7386196;19;20368;-85
2023/01/05 07:01:04;;;;;;;;;;;;;;;11.25;76.34;98833.69;7387031;19;19978;-83
2023/01/05 07:03:30;;;;;;;;;;;;;;;11.10;76.60;98824.56;7389557;19;19934;-87
2023/01/05 07:05:57;;;;;;;;;;;;;;;11.34;75.84;98824.81;7386879;19;19929;-84
2023/01/05 07:08:24;;;;;;;;;;;;;;;11.29;75.91;98819.16;7387187;19;19925;-86
2023/01/05 07:10:50;;;;;;;;;;;;;;;11.26;75.94;98830.03;7389478;19;19923;-85
2023/01/05 07:13:17;;;;;;;;;;;;;;;11.29;75.68;98831.56;7385779;19;20341;-83
2023/01/05 07:15:43;;;;;;;;;;;;;;;11.39;75.43;98827.88;7382406;19;19930;-87
2023/01/05 07:18:11;;;;;;;;;;;;;;;11.32;75.38;98825.97;7387167;19;19929;-86
2023/01/05 07:20:37;;;;;;;;;;;;;;;11.48;74.99;98834.09;7386840;19;19918;-83
2023/01/05 07:23:04;;;;;;;;;;;;;;;11.31;75.27;98841.03;7385699;19;21172;-82
2023/01/05 07:25:32;;;;;;;;;;;;;;;11.16;75.76;98846.00;7385978;19;19923;-84
2023/01/05 07:27:58;;;;;;;;;;;;;;;11.23;75.87;98845.41;7384530;19;19919;-81
2023/01/05 07:30:25;;;;;;;;;;;;;;;11.29;75.09;98845.63;7382554;19;19939;-82
2023/01/05 07:32:52;;;;;;;;;;;;;;;11.54;74.43;98859.16;7388536;19;19919;-83
2023/01/05 07:35:18;;;;;;;;;;;;;;;11.39;74.61;98850.88;7390529;19;19939;-83
2023/01/05 07:37:45;;;;;;;;;;;;;;;11.50;74.22;98850.66;7385086;19;19922;-83
2023/01/05 07:40:11;;;;;;;;;;;;;;;11.23;74.53;98851.53;7389389;19;19940;-84
2023/01/05 07:42:38;;;;;;;;;;;;;;;11.40;74.21;98841.94;7395040;19;20011;-84
2023/01/05 07:45:07;;;;;;;;;;;;;;;11.39;73.97;98846.41;7386710;19;20413;-80
2023/01/05 07:47:34;;;;;;;;;;;;;;;11.45;74.09;98849.44;7382770;19;19918;-83
2023/01/05 07:50:00;;;;;;;;;;;;;;;11.33;74.01;98856.78;7380281;19;19915;-83
2023/01/05 07:52:28;;;;;;;;;;;;;;;11.43;74.01;98862.84;7389588;19;20577;-82
2023/01/05 07:54:57;;;;;;;;;;;;;;;11.64;73.41;98859.94;7384561;19;19930;-84
2023/01/05 07:57:23;;;;;;;;;;;;;;;11.55;73.40;98858.16;7391164;19;21853;-82
2023/01/05 07:59:50;;;;;;;;;;;;;;;11.55;73.40;98866.13;7388480;19;19922;-83
2023/01/05 08:02:16;;;;;;;;;;;;;;;11.32;73.36;98871.84;7390607;19;19941;-84
2023/01/05 08:04:44;;;;;;;;;;;;;;;11.47;73.28;98869.50;7382320;19;19935;-84
2023/01/05 08:07:10;;;;;;;;;;;;;;;11.60;72.66;98875.28;7389825;19;19918;-83
2023/01/05 08:12:23;;;;;;;;;;;;;;;11.49;72.57;98879.97;7392420;19;19918;-84
2023/01/05 08:14:55;;;;;;;;;;;;;;;11.49;72.10;98880.81;7382264;19;19923;-83
2023/01/05 08:17:22;;;;;;;;;;;;;;;11.72;71.88;98883.84;7388284;19;19918;-84
2023/01/05 08:19:48;;;;;;;;;;;;;;;11.75;71.62;98883.56;7387399;19;19918;-83
2023/01/05 08:22:15;;;;;;;;;;;;;;;11.57;71.61;98895.94;7383872;19;19990;-84
2023/01/05 08:24:41;;;;;;;;;;;;;;;11.61;71.09;98892.88;7391989;19;19939;-83
2023/01/05 08:27:08;;;;;;;;;;;;;;;11.66;70.53;98889.75;7391918;19;19936;-85
2023/01/05 08:29:35;;;;;;;;;;;;;;;11.74;70.56;98891.66;7389494;19;19922;-83
2023/01/05 08:32:01;;;;;;;;;;;;;;;11.68;70.20;98893.09;7392006;19;20254;-82
2023/01/05 08:34:28;;;;;;;;;;;;;;;11.75;69.86;98901.28;7390491;19;19929;-86
2023/01/05 08:37:00;;;;;;;;;;;;;;;11.58;69.90;98903.72;7390324;19;20536;-84
2023/01/05 08:39:26;;;;;;;;;;;;;;;11.59;70.01;98900.13;7385435;19;20329;-83
2023/01/05 08:41:53;;;;;;;;;;;;;;;11.61;70.12;98906.13;7382625;19;19986;-85
2023/01/05 08:44:27;;;;;;;;;;;;;;;11.53;70.11;98907.81;7385201;19;19957;-83
2023/01/05 08:46:54;;;;;;;;;;;;;;;11.54;70.09;98917.44;7383584;19;21187;-83
2023/01/05 08:49:21;;;;;;;;;;;;;;;11.50;69.87;98911.59;7385898;19;19915;-82
2023/01/05 08:51:47;;;;;;;;;;;;;;;11.57;69.38;98917.97;7386333;19;19918;-85
2023/01/05 08:54:14;;;;;;;;;;;;;;;11.74;69.49;98919.00;7385566;19;19951;-83
2023/01/05 08:56:42;;;;;;;;;;;;;;;11.67;69.55;98922.41;7383336;19;19997;-84
2023/01/05 08:59:12;;;;;;;;;;;;;;;11.63;69.92;98920.03;7394576;19;19985;-84
2023/01/05 09:01:39;;;;;;;;;;;;;;;11.91;69.39;98929.81;7394124;19;20009;-84
2023/01/05 09:04:05;;;;;;;;;;;;;;;11.65;69.60;98926.00;7388910;19;19933;-84
2023/01/05 09:06:32;;;;;;;;;;;;;;;11.80;69.32;98936.97;7394575;19;19947;-84
2023/01/05 09:08:59;;;;;;;;;;;;;;;11.70;69.38;98938.81;7391775;19;19922;-86
2023/01/05 09:11:26;;;;;;;;;;;;;;;11.61;69.75;98940.56;7389219;19;19930;-83
2023/01/05 09:13:53;;;;;;;;;;;;;;;11.83;69.39;98935.81;7388320;19;19923;-85
2023/01/05 09:16:21;;;;;;;;;;;;;;;11.72;69.64;98944.00;7415146;19;19928;-87
2023/01/05 09:19:08;;;;;;;;;;;;;;;11.62;69.62;98942.22;7403409;19;19947;-84
2023/01/05 09:21:40;;;;;;;;;;;;;;;11.73;69.19;98943.81;7389424;19;19927;-85
2023/01/05 09:24:07;;;;;;;;;;;;;;;11.73;68.85;98953.59;7381547;19;20459;-81
2023/01/05 09:26:34;;;;;;;;;;;;;;;11.85;68.50;98950.59;7384707;19;19918;-83
2023/01/05 09:29:04;;;;;;;;;;;;;;;11.71;68.53;98959.03;7380202;19;19954;-82
2023/01/05 09:31:30;;;;;;;;;;;;;;;11.90;67.94;98955.50;7384536;19;19914;-83
2023/01/05 09:33:59;;;;;;;;;;;;;;;11.84;67.25;98961.34;7382235;19;19930;-82
2023/01/05 09:36:26;;;;;;;;;;;;;;;11.72;67.06;98965.19;7380084;19;19919;-83
2023/01/05 09:38:53;;;;;;;;;;;;;;;11.94;66.44;98967.44;7384416;19;20645;-83
2023/01/05 09:41:37;;;;;;;;;;;;;;;11.93;66.46;98965.78;7378271;19;20277;-86
2023/01/05 09:44:15;;;;;;;;;;;;;;;11.98;65.91;98978.56;7377395;19;19932;-85
2023/01/05 09:46:42;;;;;;;;;;;;;;;11.85;65.51;98985.06;7376122;19;19925;-83
2023/01/05 09:49:13;;;;;;;;;;;;;;;12.05;64.40;98991.09;7376436;19;20014;-83
2023/01/05 09:51:39;;;;;;;;;;;;;;;11.85;64.85;99008.94;7379861;19;19918;-83
2023/01/05 09:54:07;;;;;;;;;;;;;;;11.89;64.78;99013.97;7381918;19;19915;-83
2023/01/05 09:56:35;;;;;;;;;;;;;;;11.73;65.39;99006.63;7380769;19;19919;-82
2023/01/05 09:59:23;;;;;;;;;;;;;;;11.89;64.39;99000.69;7379986;19;19945;-85
2023/01/05 10:01:50;;;;;;;;;;;;;;;11.88;64.83;98999.03;7376814;19;19919;-84
2023/01/05 10:04:18;;;;;;;;;;;;;;;11.96;64.68;99002.59;7380642;19;19957;-86
2023/01/05 10:06:51;;;;;;;;;;;;;;;12.01;64.78;98996.88;7378847;19;20272;-83
2023/01/05 10:09:23;;;;;;;;;;;;;;;12.02;64.58;99001.19;7379869;19;19923;-83
2023/01/05 10:14:53;;;;;;;;;;;;;;;11.81;64.71;99001.41;7382557;19;19997;-85
2023/01/05 10:17:20;;;;;;;;;;;;;;;11.81;64.78;98999.59;7382072;19;19914;-84
2023/01/05 10:20:13;;;;;;;;;;;;;;;11.70;65.32;98998.97;7382141;19;19915;-85
2023/01/05 10:22:59;;;;;;;;;;;;;;;11.65;65.58;99002.88;7386563;19;19978;-82
2023/01/05 10:25:32;;;;;;;;;;;;;;;11.77;64.92;98992.06;7383530;19;19929;-83
2023/01/05 10:27:58;;;;;;;;;;;;;;;11.77;64.08;98992.94;7380561;19;20348;-82
2023/01/05 10:30:45;;;;;;;;;;;;;;;11.79;64.39;98993.59;7382429;19;19922;-84
2023/01/05 10:33:17;;;;;;;;;;;;;;;11.75;64.38;99002.00;7377526;19;20005;-84
2023/01/05 10:36:03;;;;;;;;;;;;;;;11.93;64.86;98992.31;7374080;19;19915;-82
2023/01/05 10:38:44;;;;;;;;;;;;;;;11.82;63.94;98990.66;7387252;19;19919;-83
2023/01/05 10:41:29;;;;;;;;;;;;;;;12.09;63.73;98986.34;7380112;19;19911;-82
2023/01/05 10:44:19;;;;;;;;;;;;;;;11.95;63.82;98979.72;7383006;19;20290;-82
2023/01/05 10:46:46;;;;;;;;;;;;;;;11.89;64.08;98987.44;7379876;19;19919;-83
2023/01/05 10:49:18;;;;;;;;;;;;;;;12.01;63.52;98986.25;7376229;19;20025;-83
2023/01/05 10:51:45;;;;;;;;;;;;;;;11.98;63.03;98978.56;7381540;19;19958;-83
2023/01/05 10:54:39;;;;;;;;;;;;;;;11.98;63.35;98983.88;7388375;19;19954;-81
2023/01/05 10:57:24;;;;;;;;;;;;;;;11.89;63.44;98976.84;7386548;19;19927;-80
2023/01/05 11:00:01;;;;;;;;;;;;;;;12.26;62.74;98977.53;7388885;19;20387;-84
2023/01/05 11:02:28;;;;;;;;;;;;;;;11.96;63.64;98981.41;7385767;19;20278;-82
2023/01/05 11:04:57;;;;;;;;;;;;;;;12.21;62.93;98977.16;7397929;19;19963;-82
2023/01/05 11:07:24;;;;;;;;;;;;;;;12.27;62.74;98967.78;7397011;19;19925;-82
2023/01/05 11:09:51;;;;;;;;;;;;;;;12.34;62.67;98974.13;7395014;19;20248;-81
2023/01/05 11:12:24;;;;;;;;;;;;;;;12.32;62.37;98967.31;7396275;19;20379;-82
2023/01/05 11:14:54;;;;;;;;;;;;;;;12.10;62.13;98969.44;7395836;19;19907;-82
2023/01/05 11:17:25;;;;;;;;;;;;;;;12.25;62.08;98973.22;7393893;19;19927;-83
2023/01/05 11:19:52;;;;;;;;;;;;;;;12.14;62.15;98968.16;7393808;19;19935;-83
2023/01/05 11:22:29;;;;;;;;;;;;;;;12.04;62.70;98968.22;7392437;19;20567;-84
2023/01/05 11:25:11;;;;;;;;;;;;;;;12.24;61.95;98968.06;7393416;19;19929;-83
2023/01/05 11:27:37;;;;;;;;;;;;;;;12.58;61.86;98965.53;7396459;19;20675;-84
2023/01/05 11:30:13;;;;;;;;;;;;;;;12.39;61.81;98973.69;7395428;19;19929;-84
2023/01/05 11:32:40;;;;;;;;;;;;;;;12.13;61.62;98973.59;7400334;19;20377;-78
2023/01/05 11:35:17;;;;;;;;;;;;;;;12.14;62.02;98970.81;7401465;19;19956;-84
2023/01/05 11:37:44;;;;;;;;;;;;;;;12.45;61.66;98973.91;7399863;19;19919;-83
2023/01/05 11:40:15;;;;;;;;;;;;;;;12.52;61.37;98968.81;7404199;19;19914;-84
2023/01/05 11:42:42;;;;;;;;;;;;;;;12.09;62.29;98970.44;7400400;19;19914;-83
2023/01/05 11:45:23;;;;;;;;;;;;;;;12.35;61.29;98972.31;7408029;19;20674;-86
2023/01/05 11:48:03;;;;;;;;;;;;;;;12.44;61.51;98974.06;7422033;19;20435;-83
2023/01/05 11:50:30;;;;;;;;;;;;;;;12.41;61.03;98975.19;7393270;19;19922;-83
2023/01/05 11:52:57;;;;;;;;;;;;;;;12.38;60.78;98978.16;7391175;19;19919;-83
2023/01/05 11:55:28;;;;;;;;;;;;;;;12.59;60.40;98972.53;7394667;19;20440;-82
2023/01/05 11:58:18;;;;;;;;;;;;;;;12.47;60.89;98965.78;7388711;19;19911;-83
2023/01/05 12:00:48;;;;;;;;;;;;;;;12.27;60.85;98967.78;7387196;19;20816;-82
2023/01/05 12:03:40;;;;;;;;;;;;;;;12.22;61.02;98972.72;7387498;19;19951;-83
2023/01/05 12:06:14;;;;;;;;;;;;;;;12.50;60.47;98976.09;7386209;19;19915;-83
2023/01/05 12:08:44;;;;;;;;;;;;;;;12.23;60.77;98969.88;7389414;19;19955;-83
2023/01/05 12:11:14;;;;;;;;;;;;;;;12.33;60.55;98980.44;7384672;19;19922;-81
2023/01/05 12:13:59;;;;;;;;;;;;;;;12.25;60.40;98969.75;7389386;19;20635;-80
2023/01/05 12:16:45;;;;;;;;;;;;;;;12.64;60.01;98975.56;7378250;19;19923;-82
2023/01/05 12:19:21;;;;;;;;;;;;;;;12.30;60.62;98967.47;7379134;19;19991;-83
2023/01/05 12:21:55;;;;;;;;;;;;;;;12.34;60.47;98978.59;7385065;19;19923;-87
2023/01/05 12:24:30;;;;;;;;;;;;;;;12.04;62.05;98983.31;7381143;19;19919;-83
2023/01/05 12:26:57;;;;;;;;;;;;;;;12.12;62.06;98979.91;7385255;19;20299;-84
2023/01/05 12:29:24;;;;;;;;;;;;;;;12.06;61.78;98986.66;7391323;19;20361;-79
2023/01/05 12:32:15;;;;;;;;;;;;;;;12.15;61.80;98987.56;7384657;19;19922;-81
2023/01/05 12:35:06;;;;;;;;;;;;;;;12.20;62.02;98991.41;7379848;19;20325;-81
2023/01/05 12:37:36;;;;;;;;;;;;;;;12.20;62.29;98988.75;7383781;19;20304;-84
2023/01/05 12:40:05;;;;;;;;;;;;;;;12.28;61.97;98994.16;7389136;19;19948;-84
2023/01/05 12:42:50;;;;;;;;;;;;;;;12.27;61.53;98995.16;7389585;19;19927;-81
2023/01/05 12:45:36;;;;;;;;;;;;;;;12.17;62.30;98991.72;7389016;19;19927;-81
2023/01/05 12:48:04;;;;;;;;;;;;;;;12.15;62.61;98991.03;7387629;19;19933;-83
2023/01/05 12:50:38;;;;;;;;;;;;;;;12.18;61.87;98992.56;7380266;19;19936;-82
2023/01/05 12:53:07;;;;;;;;;;;;;;;12.11;62.29;98988.81;7374614;19;19915;-82
2023/01/05 12:55:39;;;;;;;;;;;;;;;12.04;62.56;98999.22;7397488;19;19919;-82
2023/01/05 12:58:18;;;;;;;;;;;;;;;11.85;62.89;98994.84;7413283;19;19947;-82
2023/01/05 13:00:46;;;;;;;;;;;;;;;12.15;62.78;98990.19;7397387;19;19953;-81
2023/01/05 13:03:45;;;;;;;;;;;;;;;11.75;63.03;98991.41;7394149;19;19923;-82
2023/01/05 13:06:30;;;;;;;;;;;;;;;12.04;62.42;98993.91;7405218;19;19922;-81
2023/01/05 13:09:00;;;;;;;;;;;;;;;12.01;62.61;98996.88;7383624;19;19922;-81
2023/01/05 13:11:31;;;;;;;;;;;;;;;11.74;62.94;98998.53;7382736;19;19925;-83
2023/01/05 13:13:58;;;;;;;;;;;;;;;11.94;62.66;98993.13;7377729;19;19915;-82
2023/01/05 13:16:29;;;;;;;;;;;;;;;11.77;62.90;98992.06;7381024;19;19919;-82
2023/01/05 13:18:59;;;;;;;;;;;;;;;11.85;62.87;98986.88;7381859;19;19921;-80
2023/01/05 13:21:26;;;;;;;;;;;;;;;12.10;62.43;98990.66;7381059;19;19925;-83
2023/01/05 13:23:54;;;;;;;;;;;;;;;12.14;62.50;98989.38;7378067;19;19922;-82
2023/01/05 13:26:24;;;;;;;;;;;;;;;12.02;62.81;98987.91;7369409;19;21583;-83
2023/01/05 13:28:54;;;;;;;;;;;;;;;11.93;62.89;98986.16;7377813;19;19992;-81
2023/01/05 13:31:21;;;;;;;;;;;;;;;12.01;62.98;98988.91;7373673;19;19943;-81
2023/01/05 13:34:10;;;;;;;;;;;;;;;11.94;62.92;98993.13;7379507;19;19927;-80
2023/01/05 13:36:40;;;;;;;;;;;;;;;12.01;62.80;98996.88;7379950;19;19934;-81